地図

経路データ

SID SEASON NUMBER BASIN SUBBASIN NAME ISO_TIME NATURE LAT LON WMO_WIND WMO_PRES WMO_AGENCY TRACK_TYPE DIST2LAND LANDFALL IFLAG USA_AGENCY USA_ATCF_ID USA_LAT USA_LON USA_RECORD USA_STATUS USA_WIND USA_PRES USA_SSHS USA_R34_NE USA_R34_SE USA_R34_SW USA_R34_NW USA_R50_NE USA_R50_SE USA_R50_SW USA_R50_NW USA_R64_NE USA_R64_SE USA_R64_SW USA_R64_NW USA_POCI USA_ROCI USA_RMW USA_EYE TOKYO_LAT TOKYO_LON TOKYO_GRADE TOKYO_WIND TOKYO_PRES TOKYO_R50_DIR TOKYO_R50_LONG TOKYO_R50_SHORT TOKYO_R30_DIR TOKYO_R30_LONG TOKYO_R30_SHORT TOKYO_LAND CMA_LAT CMA_LON CMA_CAT CMA_WIND CMA_PRES HKO_LAT HKO_LON HKO_CAT HKO_WIND HKO_PRES NEWDELHI_LAT NEWDELHI_LON NEWDELHI_GRADE NEWDELHI_WIND NEWDELHI_PRES NEWDELHI_CI NEWDELHI_DP NEWDELHI_POCI REUNION_LAT REUNION_LON REUNION_TYPE REUNION_WIND REUNION_PRES REUNION_TNUM REUNION_CI REUNION_RMW REUNION_R34_NE REUNION_R34_SE REUNION_R34_SW REUNION_R34_NW REUNION_R50_NE REUNION_R50_SE REUNION_R50_SW REUNION_R50_NW REUNION_R64_NE REUNION_R64_SE REUNION_R64_SW REUNION_R64_NW BOM_LAT BOM_LON BOM_TYPE BOM_WIND BOM_PRES BOM_TNUM BOM_CI BOM_RMW BOM_R34_NE BOM_R34_SE BOM_R34_SW BOM_R34_NW BOM_R50_NE BOM_R50_SE BOM_R50_SW BOM_R50_NW BOM_R64_NE BOM_R64_SE BOM_R64_SW BOM_R64_NW BOM_ROCI BOM_POCI BOM_EYE BOM_POS_METHOD BOM_PRES_METHOD NADI_LAT NADI_LON NADI_CAT NADI_WIND NADI_PRES WELLINGTON_LAT WELLINGTON_LON WELLINGTON_WIND WELLINGTON_PRES DS824_LAT DS824_LON DS824_STAGE DS824_WIND DS824_PRES TD9636_LAT TD9636_LON TD9636_STAGE TD9636_WIND TD9636_PRES TD9635_LAT TD9635_LON TD9635_WIND TD9635_PRES TD9635_ROCI NEUMANN_LAT NEUMANN_LON NEUMANN_CLASS NEUMANN_WIND NEUMANN_PRES MLC_LAT MLC_LON MLC_CLASS MLC_WIND MLC_PRES USA_GUST BOM_GUST BOM_GUST_PER REUNION_GUST REUNION_GUST_PER USA_SEAHGT USA_SEARAD_NE USA_SEARAD_SE USA_SEARAD_SW USA_SEARAD_NW STORM_SPEED STORM_DIR
1875239N37308 1875 8 NA NA NOT_NAMED 1875-08-27 00:00:00 TS 36.9000 -52.4000 main 1080 1070 _____________O -1 36.9000 -52.4000 TD 30 3 64
1875239N37308 1875 8 NA NA NOT_NAMED 1875-08-27 03:00:00 TS 36.9626 -52.2401 main 1071 1071 _____________P -1 36.9626 -52.2401 TD 30 3 67
1875239N37308 1875 8 NA NA NOT_NAMED 1875-08-27 06:00:00 TS 37.0000 -52.1000 main 1071 1071 _____________O -1 37.0000 -52.1000 TD 30 2 80
1875239N37308 1875 8 NA NA NOT_NAMED 1875-08-27 09:00:00 TS 36.9998 -51.9799 main 1072 1072 _____________P -1 36.9998 -51.9799 TD 30 2 90
1875239N37308 1875 8 NA NA NOT_NAMED 1875-08-27 12:00:00 TS 37.0000 -51.8000 main 1074 1074 _____________O -1 37.0000 -51.8000 TD 30 4 84
1875239N37308 1875 8 NA NA NOT_NAMED 1875-08-27 15:00:00 TS 37.0429 -51.4277 main 1078 1067 _____________P -1 37.0429 -51.4277 TD 32 6 80
1875239N37308 1875 8 NA NA NOT_NAMED 1875-08-27 18:00:00 TS 37.1000 -51.1000 main 1070 1070 _____________O -1 37.1000 -51.1000 TS 35 3 69
1875239N37308 1875 8 NA NA NOT_NAMED 1875-08-27 21:00:00 TS 37.1498 -51.0699 main 1070 1059 _____________P -1 37.1498 -51.0699 TS 40 1 0
1875239N37308 1875 8 NA NA NOT_NAMED 1875-08-28 00:00:00 TS 37.2000 -51.1000 main 1059 1059 _____________O -1 37.2000 -51.1000 TS 45 1 37
1875239N37308 1875 8 NA NA NOT_NAMED 1875-08-28 03:00:00 TS 37.2501 -50.9650 main 1050 1050 _____________P -1 37.2501 -50.9650 TS 45 3 67
1875239N37308 1875 8 NA NA NOT_NAMED 1875-08-28 06:00:00 TS 37.3000 -50.8000 main 1053 1053 _____________O -1 37.3000 -50.8000 TS 45 2 65
1875239N37308 1875 8 NA NA NOT_NAMED 1875-08-28 09:00:00 TS 37.3347 -50.7447 main 1054 1043 _____________P -1 37.3347 -50.7447 TS 50 2 57
1875239N37308 1875 8 NA NA NOT_NAMED 1875-08-28 12:00:00 TS 37.4000 -50.6000 main 1045 1036 _____________O -1 37.4000 -50.6000 TS 55 5 65
1875239N37308 1875 8 NA NA NOT_NAMED 1875-08-28 15:00:00 TS 37.5353 -50.2027 main 1041 1028 _____________P -1 37.5353 -50.2027 TS 57 8 67
1875239N37308 1875 8 NA NA NOT_NAMED 1875-08-28 18:00:00 TS 37.7000 -49.7000 main 1030 1024 _____________O -1 37.7000 -49.7000 TS 60 8 68
1875239N37308 1875 8 NA NA NOT_NAMED 1875-08-28 21:00:00 TS 37.8500 -49.2349 main 1031 1018 _____________P -1 37.8500 -49.2349 TS 62 8 67
1875239N37308 1875 8 NA NA NOT_NAMED 1875-08-29 00:00:00 TS 38.0000 -48.8000 main 1021 1014 _____________O -1 38.0000 -48.8000 HU 65 7 65
1875239N37308 1875 8 NA NA NOT_NAMED 1875-08-29 03:00:00 TS 38.1497 -48.4348 main 1023 1009 _____________P -1 38.1497 -48.4348 HU 65 6 61
1875239N37308 1875 8 NA NA NOT_NAMED 1875-08-29 06:00:00 TS 38.3000 -48.1000 main 1012 1005 _____________O -1 38.3000 -48.1000 HU 65 6 61
1875239N37308 1875 8 NA NA NOT_NAMED 1875-08-29 09:00:00 TS 38.4500 -47.7350 main 1005 1003 _____________P -1 38.4500 -47.7350 HU 65 6 61
1875239N37308 1875 8 NA NA NOT_NAMED 1875-08-29 12:00:00 TS 38.6000 -47.4000 main 1006 1000 _____________O -1 38.6000 -47.4000 HU 65 6 57
1875239N37308 1875 8 NA NA NOT_NAMED 1875-08-29 15:00:00 TS 38.7573 -47.1349 main 998 993 _____________P -1 38.7573 -47.1349 HU 65 5 52
1875239N37308 1875 8 NA NA NOT_NAMED 1875-08-29 18:00:00 TS 38.9000 -46.9000 main 997 991 _____________O -1 38.9000 -46.9000 HU 65 5 56
1875239N37308 1875 8 NA NA NOT_NAMED 1875-08-29 21:00:00 TS 39.0074 -46.6499 main 1000 995 _____________P -1 39.0074 -46.6499 HU 65 4 63
1875239N37308 1875 8 NA NA NOT_NAMED 1875-08-30 00:00:00 TS 39.1000 -46.4000 main 999 994 _____________O -1 39.1000 -46.4000 HU 65 4 64
1875239N37308 1875 8 NA NA NOT_NAMED 1875-08-30 03:00:00 TS 39.1999 -46.1499 main 1003 998 _____________P -1 39.1999 -46.1499 HU 65 4 63
1875239N37308 1875 8 NA NA NOT_NAMED 1875-08-30 06:00:00 TS 39.3000 -45.9000 main 1003 1003 _____________O -1 39.3000 -45.9000 HU 65 3 64
1875239N37308 1875 8 NA NA NOT_NAMED 1875-08-30 09:00:00 TS 39.3538 -45.7456 main 1004 1004 _____________P -1 39.3538 -45.7456 HU 65 4 63
1875239N37308 1875 8 NA NA NOT_NAMED 1875-08-30 12:00:00 TS 39.5000 -45.4000 main 1009 1006 _____________O -1 39.5000 -45.4000 HU 65 10 60
1875239N37308 1875 8 NA NA NOT_NAMED 1875-08-30 15:00:00 TS 39.8551 -44.6357 main 1016 1016 _____________P -1 39.8551 -44.6357 HU 65 16 60
1875239N37308 1875 8 NA NA NOT_NAMED 1875-08-30 18:00:00 TS 40.3000 -43.6000 main 1041 1041 _____________O -1 40.3000 -43.6000 HU 65 19 63
1875239N37308 1875 8 NA NA NOT_NAMED 1875-08-30 21:00:00 TS 40.7007 -42.4573 main 1078 1078 _____________P -1 40.7007 -42.4573 HU 60 19 65
1875239N37308 1875 8 NA NA NOT_NAMED 1875-08-31 00:00:00 TS 41.1000 -41.3000 main 1126 1126 _____________O -1 41.1000 -41.3000 TS 55 18 64
1875239N37308 1875 8 NA NA NOT_NAMED 1875-08-31 03:00:00 TS 41.4986 -40.3110 main 1166 1166 _____________P -1 41.4986 -40.3110 TS 55 16 61
1875239N37308 1875 8 NA NA NOT_NAMED 1875-08-31 06:00:00 ET 41.9000 -39.4000 main 1204 1204 _____________O -1 41.9000 -39.4000 EX 55 16 59
1875239N37308 1875 8 NA NA NOT_NAMED 1875-08-31 09:00:00 ET 42.2991 -38.4912 main 1245 1245 _____________P -1 42.2991 -38.4912 EX 55 16 59
1875239N37308 1875 8 NA NA NOT_NAMED 1875-08-31 12:00:00 ET 42.7000 -37.6000 main 1285 1285 _____________O -1 42.7000 -37.6000 EX 55 15 59
1875239N37308 1875 8 NA NA NOT_NAMED 1875-08-31 15:00:00 ET 43.1015 -36.7049 main 1328 1328 _____________P -1 43.1015 -36.7049 EX 50 15 59
1875239N37308 1875 8 NA NA NOT_NAMED 1875-08-31 18:00:00 ET 43.5000 -35.8000 main 1374 _____________O -1 43.5000 -35.8000 EX 45 15 59

IBTrACS Databaseについて

本データベースは、米国NOAAが公開する1842年以降の世界の熱帯低気圧のベストトラックデータアーカイブInternational Best Track Archive for Climate Stewardship (IBTrACS)を、ウェブで閲覧しやすい形式に変換したものです。

最終更新日:2021-12-03